createdAt,value
2023-10-01T00:00:27.164Z,18.15
2023-10-01T00:02:55.225Z,18.13
2023-10-01T00:05:25.593Z,18.10
2023-10-01T00:07:53.871Z,18.09
2023-10-01T00:10:24.044Z,18.05
2023-10-01T00:12:55.164Z,18.08
2023-10-01T00:15:27.341Z,18.03
2023-10-01T00:17:55.566Z,18.01
2023-10-01T00:20:25.620Z,18.01
2023-10-01T00:22:58.091Z,18.00
2023-10-01T00:25:28.183Z,17.97
2023-10-01T00:27:57.848Z,17.92
2023-10-01T00:30:32.322Z,17.93
2023-10-01T00:33:00.904Z,17.90
2023-10-01T00:35:28.790Z,17.89
2023-10-01T00:37:56.685Z,17.89
2023-10-01T00:40:24.885Z,17.89
2023-10-01T00:42:53.204Z,17.87
2023-10-01T00:45:21.854Z,17.87
2023-10-01T00:47:52.324Z,17.87
2023-10-01T00:50:23.807Z,17.83
2023-10-01T00:52:54.096Z,17.85
2023-10-01T00:55:22.984Z,17.84
2023-10-01T00:57:51.508Z,17.79
2023-10-01T01:00:21.412Z,17.81
2023-10-01T01:02:59.405Z,17.85
2023-10-01T01:05:29.834Z,17.81
2023-10-01T01:08:02.206Z,17.77
2023-10-01T01:10:33.193Z,17.78
2023-10-01T01:13:01.485Z,17.75
2023-10-01T01:15:35.248Z,17.70
2023-10-01T01:18:08.744Z,17.64
2023-10-01T01:20:44.498Z,17.64
2023-10-01T01:23:18.353Z,17.60
2023-10-01T01:25:46.552Z,17.60
2023-10-01T01:28:25.312Z,17.58
2023-10-01T01:30:54.405Z,17.57
2023-10-01T01:33:27.471Z,17.50
2023-10-01T01:35:56.169Z,17.45
2023-10-01T01:38:26.723Z,17.20
2023-10-01T01:40:54.733Z,17.15
2023-10-01T01:43:31.641Z,17.27
2023-10-01T01:46:01.819Z,17.32
2023-10-01T01:48:32.823Z,17.35
2023-10-01T01:51:02.748Z,17.40
2023-10-01T01:53:36.305Z,17.39
2023-10-01T01:56:09.413Z,17.36
2023-10-01T01:58:38.585Z,17.35
2023-10-01T02:01:24.618Z,17.37
2023-10-01T02:03:53.676Z,17.32
2023-10-01T02:06:29.172Z,17.34
2023-10-01T02:09:00.432Z,17.27
2023-10-01T02:11:33.856Z,17.21
2023-10-01T02:14:04.726Z,17.21
2023-10-01T02:16:38.792Z,17.23
2023-10-01T02:19:19.438Z,17.26
2023-10-01T02:21:54.409Z,17.29
2023-10-01T02:24:38.913Z,17.25
2023-10-01T02:27:10.679Z,17.25
2023-10-01T02:29:47.311Z,17.26
2023-10-01T02:32:16.355Z,17.23
2023-10-01T02:34:44.717Z,17.22
2023-10-01T02:37:16.922Z,17.18
2023-10-01T02:39:45.480Z,17.16
2023-10-01T02:42:22.856Z,17.06
2023-10-01T02:44:55.172Z,17.05
2023-10-01T02:47:26.006Z,17.08
2023-10-01T02:49:59.655Z,17.06
2023-10-01T02:52:38.126Z,16.93
2023-10-01T02:55:19.392Z,16.84
2023-10-01T02:57:51.658Z,16.90
2023-10-01T03:00:21.749Z,16.97
2023-10-01T03:02:54.679Z,17.00
2023-10-01T03:05:30.284Z,16.94
2023-10-01T03:07:59.104Z,16.92
2023-10-01T03:10:31.317Z,16.95
2023-10-01T03:13:00.525Z,16.96
2023-10-01T03:15:30.771Z,16.97
2023-10-01T03:17:59.756Z,17.02
2023-10-01T03:20:47.475Z,17.03
2023-10-01T03:23:26.712Z,16.95
2023-10-01T03:26:00.943Z,16.93
2023-10-01T03:28:34.805Z,16.93
2023-10-01T03:31:09.264Z,16.88
2023-10-01T03:33:40.037Z,16.84
2023-10-01T03:36:12.398Z,16.85
2023-10-01T03:38:40.732Z,16.84
2023-10-01T03:41:11.030Z,16.86
2023-10-01T03:43:39.051Z,16.86
2023-10-01T03:46:27.443Z,16.87
2023-10-01T03:49:03.020Z,16.85
2023-10-01T03:51:50.300Z,16.87
2023-10-01T03:54:20.593Z,16.86
2023-10-01T03:56:58.114Z,16.86
2023-10-01T03:59:28.830Z,16.84
2023-10-01T04:02:04.029Z,16.84
2023-10-01T04:04:33.989Z,16.82
2023-10-01T04:07:11.341Z,16.81
2023-10-01T04:09:47.716Z,16.77
2023-10-01T04:12:33.685Z,16.74
2023-10-01T04:15:04.900Z,16.68
2023-10-01T04:17:37.089Z,16.64
2023-10-01T04:20:15.238Z,16.69
2023-10-01T04:22:43.295Z,16.70
2023-10-01T04:25:14.014Z,16.70
2023-10-01T04:27:46.866Z,16.66
2023-10-01T04:30:16.066Z,16.66
2023-10-01T04:32:44.205Z,16.70
2023-10-01T04:35:19.158Z,16.66
2023-10-01T04:37:49.495Z,16.63
2023-10-01T04:40:41.002Z,16.61
2023-10-01T04:43:12.373Z,16.60
2023-10-01T04:45:42.265Z,16.59
2023-10-01T04:48:16.954Z,16.59
2023-10-01T04:50:47.568Z,16.59
2023-10-01T04:53:15.867Z,16.59
2023-10-01T04:55:44.262Z,16.55
2023-10-01T04:58:16.339Z,16.48
2023-10-01T05:00:47.084Z,16.43
2023-10-01T05:03:17.237Z,16.38
2023-10-01T05:05:46.028Z,16.36
2023-10-01T05:08:14.928Z,16.35
2023-10-01T05:10:57.546Z,16.35
2023-10-01T05:13:26.953Z,16.35
2023-10-01T05:15:57.950Z,16.37
2023-10-01T05:18:27.989Z,16.35
2023-10-01T05:20:59.699Z,16.35
2023-10-01T05:23:28.604Z,16.35
2023-10-01T05:25:57.554Z,16.32
2023-10-01T05:28:35.701Z,16.31
2023-10-01T05:31:07.418Z,16.31
2023-10-01T05:33:35.487Z,16.28
2023-10-01T05:36:05.609Z,16.30
2023-10-01T05:38:36.642Z,16.29
2023-10-01T05:41:05.690Z,16.28
2023-10-01T05:43:38.662Z,16.27
2023-10-01T05:46:10.870Z,16.29
2023-10-01T05:48:40.558Z,16.25
2023-10-01T05:51:12.486Z,16.23
2023-10-01T05:53:41.751Z,16.24
2023-10-01T05:56:11.408Z,16.26
2023-10-01T05:58:41.237Z,16.24
2023-10-01T06:01:15.243Z,16.24
2023-10-01T06:03:44.710Z,16.28
2023-10-01T06:06:15.541Z,16.29
2023-10-01T06:08:47.522Z,16.30
2023-10-01T06:11:17.158Z,16.29
2023-10-01T06:13:52.472Z,16.21
2023-10-01T06:16:25.230Z,16.25
2023-10-01T06:18:58.442Z,16.29
2023-10-01T06:21:29.048Z,16.30
2023-10-01T06:23:59.687Z,16.31
2023-10-01T06:26:34.868Z,16.35
2023-10-01T06:29:04.969Z,16.40
2023-10-01T06:31:49.464Z,16.45
2023-10-01T06:34:21.023Z,16.46
2023-10-01T06:36:52.123Z,16.47
2023-10-01T06:39:21.902Z,16.45
2023-10-01T06:41:50.409Z,16.49
2023-10-01T06:44:20.682Z,16.49
2023-10-01T06:46:49.851Z,16.54
2023-10-01T06:49:19.968Z,16.54
2023-10-01T06:51:48.173Z,16.57
2023-10-01T06:54:19.359Z,16.68
2023-10-01T06:56:49.182Z,16.76
2023-10-01T06:59:18.694Z,16.82
2023-10-01T07:01:57.862Z,16.88
2023-10-01T07:04:26.242Z,16.93
2023-10-01T07:06:54.496Z,17.00
2023-10-01T07:09:28.638Z,16.96
2023-10-01T07:12:01.165Z,16.89
2023-10-01T07:14:40.121Z,16.94
2023-10-01T07:17:10.955Z,16.89
2023-10-01T07:19:39.389Z,17.02
2023-10-01T07:22:08.681Z,17.10
2023-10-01T07:24:37.122Z,17.26
2023-10-01T07:27:06.899Z,17.43
2023-10-01T07:29:36.464Z,17.48
2023-10-01T07:32:08.238Z,17.36
2023-10-01T07:34:40.624Z,17.19
2023-10-01T07:37:10.335Z,17.25
2023-10-01T07:39:41.313Z,17.32
2023-10-01T07:42:11.909Z,17.40
2023-10-01T07:44:41.091Z,17.40
2023-10-01T07:47:09.108Z,17.36
2023-10-01T07:49:49.217Z,17.37
2023-10-01T07:52:20.064Z,17.58
2023-10-01T07:54:50.686Z,17.68
2023-10-01T07:57:19.523Z,17.91
2023-10-01T07:59:53.952Z,17.97
2023-10-01T08:02:29.182Z,17.89
2023-10-01T08:05:00.237Z,17.86
2023-10-01T08:07:40.936Z,18.04
2023-10-01T08:10:19.481Z,18.16
2023-10-01T08:13:05.260Z,18.19
2023-10-01T08:15:39.437Z,18.36
2023-10-01T08:18:26.339Z,18.41
2023-10-01T08:21:01.662Z,18.47
2023-10-01T08:23:29.517Z,18.52
2023-10-01T08:25:58.059Z,18.56
2023-10-01T08:28:29.494Z,18.67
2023-10-01T08:31:03.660Z,18.71
2023-10-01T08:33:43.474Z,18.76
2023-10-01T08:36:15.281Z,18.74
2023-10-01T08:38:48.448Z,18.72
2023-10-01T08:41:33.325Z,18.77
2023-10-01T08:44:11.486Z,18.79
2023-10-01T08:46:42.646Z,18.74
2023-10-01T08:49:24.489Z,18.69
2023-10-01T08:52:15.532Z,18.44
2023-10-01T08:54:45.947Z,18.42
2023-10-01T08:57:19.068Z,18.50
2023-10-01T08:59:47.196Z,18.53
2023-10-01T09:02:17.502Z,18.67
2023-10-01T09:04:48.218Z,18.83
2023-10-01T09:07:20.399Z,18.66
2023-10-01T09:10:09.120Z,18.51
2023-10-01T09:12:47.063Z,18.63
2023-10-01T09:15:28.456Z,18.67
2023-10-01T09:17:59.431Z,18.70
2023-10-01T09:20:40.643Z,18.82
2023-10-01T09:23:10.693Z,18.91
2023-10-01T09:25:42.759Z,19.06
2023-10-01T09:28:24.772Z,19.20
2023-10-01T09:31:03.124Z,19.26
2023-10-01T09:33:33.442Z,19.31
2023-10-01T09:36:01.706Z,19.43
2023-10-01T09:38:31.362Z,19.58
2023-10-01T09:41:01.351Z,19.56
2023-10-01T09:43:32.668Z,19.58
2023-10-01T09:46:03.445Z,19.72
2023-10-01T09:48:35.010Z,19.81
2023-10-01T09:51:15.010Z,19.88
2023-10-01T09:53:49.383Z,19.92
2023-10-01T09:56:27.998Z,20.01
2023-10-01T09:59:05.011Z,20.10
2023-10-01T10:01:35.287Z,20.13
2023-10-01T10:04:05.005Z,20.00
2023-10-01T10:06:34.016Z,20.13
2023-10-01T10:09:08.720Z,20.28
2023-10-01T10:11:44.849Z,20.40
2023-10-01T10:14:57.782Z,20.44
2023-10-01T10:17:28.804Z,20.43
2023-10-01T10:20:23.809Z,20.55
2023-10-01T10:23:17.519Z,20.67
2023-10-01T10:25:47.330Z,20.70
2023-10-01T10:28:25.963Z,20.81
2023-10-01T10:31:35.375Z,20.66
2023-10-01T10:34:27.279Z,20.76
2023-10-01T10:36:56.320Z,20.53
2023-10-01T10:40:04.041Z,20.68
2023-10-01T10:42:34.708Z,20.90
2023-10-01T10:45:21.267Z,20.99
2023-10-01T10:48:01.120Z,21.05
2023-10-01T10:50:45.578Z,21.06
2023-10-01T10:53:21.560Z,21.20
2023-10-01T10:55:56.132Z,21.26
2023-10-01T10:58:27.485Z,21.16
2023-10-01T11:00:56.425Z,21.19
2023-10-01T11:03:42.101Z,21.28
2023-10-01T11:06:21.690Z,21.39
2023-10-01T11:08:53.456Z,21.49
2023-10-01T11:11:37.962Z,21.57
2023-10-01T11:14:17.525Z,21.60
2023-10-01T11:16:47.678Z,21.67
2023-10-01T11:19:17.789Z,21.76
2023-10-01T11:21:56.217Z,21.82
2023-10-01T11:24:32.100Z,21.80
2023-10-01T11:27:21.263Z,21.74
2023-10-01T11:30:13.972Z,21.80
2023-10-01T11:33:04.438Z,21.84
2023-10-01T11:35:35.369Z,21.61
2023-10-01T11:38:09.498Z,21.80
2023-10-01T11:40:56.591Z,21.87
2023-10-01T11:43:28.750Z,21.92
2023-10-01T11:46:25.035Z,22.05
2023-10-01T11:49:04.059Z,22.24
2023-10-01T11:51:45.193Z,22.23
2023-10-01T11:54:14.494Z,22.13
2023-10-01T11:56:44.477Z,22.18
2023-10-01T11:59:19.113Z,22.23
2023-10-01T12:01:53.392Z,22.30
2023-10-01T12:04:43.567Z,22.34
2023-10-01T12:07:19.375Z,22.30
2023-10-01T12:09:50.443Z,22.19
2023-10-01T12:12:19.680Z,22.31
2023-10-01T12:14:57.509Z,22.43
2023-10-01T12:17:28.515Z,22.50
2023-10-01T12:19:58.400Z,22.57
2023-10-01T12:22:26.483Z,22.55
2023-10-01T12:24:59.211Z,22.58
2023-10-01T12:27:43.321Z,22.57
2023-10-01T12:30:12.601Z,22.68
2023-10-01T12:32:49.467Z,22.74
2023-10-01T12:35:29.686Z,22.88
2023-10-01T12:38:29.077Z,22.87
2023-10-01T12:40:57.080Z,22.68
2023-10-01T12:43:38.100Z,22.71
2023-10-01T12:46:10.690Z,22.72
2023-10-01T12:48:42.637Z,22.85
2023-10-01T12:51:11.240Z,22.88
2023-10-01T12:53:49.096Z,22.82
2023-10-01T12:56:22.563Z,22.93
2023-10-01T12:58:57.071Z,22.92
2023-10-01T13:01:33.392Z,22.97
2023-10-01T13:04:22.843Z,23.04
2023-10-01T13:06:50.619Z,23.16
2023-10-01T13:09:55.050Z,23.27
2023-10-01T13:12:26.237Z,23.24
2023-10-01T13:15:12.882Z,23.34
2023-10-01T13:17:45.049Z,23.52
2023-10-01T13:20:21.043Z,23.71
2023-10-01T13:22:49.923Z,23.68
2023-10-01T13:25:21.171Z,23.67
2023-10-01T13:27:49.223Z,23.72
2023-10-01T13:30:21.734Z,23.88
2023-10-01T13:33:11.501Z,23.99
2023-10-01T13:35:54.053Z,24.07
2023-10-01T13:38:38.859Z,24.03
2023-10-01T13:41:24.359Z,24.10
2023-10-01T13:44:10.016Z,24.23
2023-10-01T13:46:55.217Z,24.33
2023-10-01T13:49:40.914Z,24.36
2023-10-01T13:52:27.903Z,24.38
2023-10-01T13:55:13.064Z,24.25
2023-10-01T13:57:58.624Z,24.13
2023-10-01T14:00:43.888Z,24.04
2023-10-01T14:03:29.330Z,24.06
2023-10-01T14:06:14.764Z,24.15
2023-10-01T14:08:46.854Z,24.15
2023-10-01T14:11:17.454Z,24.11
2023-10-01T14:13:49.158Z,24.26
2023-10-01T14:16:23.798Z,24.33
2023-10-01T14:18:59.681Z,24.25
2023-10-01T14:21:29.744Z,24.20
2023-10-01T14:24:20.324Z,24.27
2023-10-01T14:26:48.619Z,24.40
2023-10-01T14:29:23.418Z,24.47
2023-10-01T14:31:52.107Z,24.47
2023-10-01T14:34:21.536Z,24.44
2023-10-01T14:36:53.254Z,24.55
2023-10-01T14:39:31.553Z,24.74
2023-10-01T14:41:59.917Z,24.92
2023-10-01T14:44:27.916Z,24.97
2023-10-01T14:46:57.780Z,24.94
2023-10-01T14:49:26.295Z,24.94
2023-10-01T14:51:57.402Z,25.01
2023-10-01T14:54:30.238Z,25.09
2023-10-01T14:57:00.124Z,25.20
2023-10-01T14:59:33.940Z,25.25
2023-10-01T15:02:03.717Z,25.12
2023-10-01T15:04:36.951Z,25.00
2023-10-01T15:07:07.050Z,24.96
2023-10-01T15:09:39.634Z,24.83
2023-10-01T15:12:11.548Z,25.02
2023-10-01T15:15:00.237Z,25.08
2023-10-01T15:17:38.190Z,25.03
2023-10-01T15:20:10.385Z,24.99
2023-10-01T15:22:44.814Z,25.03
2023-10-01T15:25:14.764Z,25.07
2023-10-01T15:27:42.680Z,25.20
2023-10-01T15:30:22.544Z,25.04
2023-10-01T15:33:01.274Z,24.96
2023-10-01T15:35:31.659Z,24.92
2023-10-01T15:38:00.026Z,24.98
2023-10-01T15:40:29.532Z,25.03
2023-10-01T15:42:58.315Z,24.92
2023-10-01T15:45:26.723Z,24.71
2023-10-01T15:47:59.996Z,24.68
2023-10-01T15:50:39.546Z,24.53
2023-10-01T15:53:19.478Z,24.58
2023-10-01T15:56:00.359Z,24.70
2023-10-01T15:58:28.742Z,24.56
2023-10-01T16:00:58.800Z,24.47
2023-10-01T16:03:32.283Z,24.48
2023-10-01T16:06:10.379Z,24.31
2023-10-01T16:08:43.915Z,24.27
2023-10-01T16:11:14.790Z,24.27
2023-10-01T16:13:54.502Z,24.19
2023-10-01T16:16:27.919Z,24.05
2023-10-01T16:19:01.365Z,24.02
2023-10-01T16:21:32.428Z,23.78
2023-10-01T16:24:00.899Z,23.59
2023-10-01T16:26:34.196Z,23.43
2023-10-01T16:29:08.348Z,23.10
2023-10-01T16:31:36.748Z,22.97
2023-10-01T16:34:07.640Z,22.76
2023-10-01T16:36:39.920Z,22.58
2023-10-01T16:39:18.287Z,22.38
2023-10-01T16:41:50.417Z,22.24
2023-10-01T16:44:18.903Z,22.12
2023-10-01T16:46:58.168Z,22.20
2023-10-01T16:49:26.116Z,22.25
2023-10-01T16:51:56.431Z,22.20
2023-10-01T16:54:28.599Z,22.10
2023-10-01T16:56:59.576Z,21.84
2023-10-01T16:59:32.916Z,21.80
2023-10-01T17:02:02.515Z,21.81
2023-10-01T17:04:33.434Z,21.77
2023-10-01T17:07:15.252Z,21.69
2023-10-01T17:09:50.130Z,21.56
2023-10-01T17:12:24.551Z,21.43
2023-10-01T17:14:54.119Z,21.25
2023-10-01T17:17:22.285Z,20.95
2023-10-01T17:19:50.763Z,20.83
2023-10-01T17:22:23.249Z,21.00
2023-10-01T17:24:52.645Z,21.17
2023-10-01T17:27:22.897Z,21.10
2023-10-01T17:29:51.999Z,20.78
2023-10-01T17:32:21.653Z,20.72
2023-10-01T17:34:49.941Z,20.79
2023-10-01T17:37:23.720Z,20.82
2023-10-01T17:39:57.180Z,20.81
2023-10-01T17:42:28.365Z,20.81
2023-10-01T17:44:58.606Z,20.75
2023-10-01T17:47:31.376Z,20.70
2023-10-01T17:50:01.099Z,20.67
2023-10-01T17:52:32.694Z,20.65
2023-10-01T17:55:03.682Z,20.63
2023-10-01T17:57:38.980Z,20.61
2023-10-01T18:00:42.808Z,20.59
2023-10-01T18:03:11.630Z,20.52
2023-10-01T18:05:43.503Z,20.51
2023-10-01T18:08:12.388Z,20.48
2023-10-01T18:10:42.676Z,20.45
2023-10-01T18:13:16.227Z,20.41
2023-10-01T18:15:50.654Z,20.34
2023-10-01T18:18:24.502Z,20.30
2023-10-01T18:20:53.314Z,20.27
2023-10-01T18:23:21.368Z,20.23
2023-10-01T18:25:55.014Z,20.18
2023-10-01T18:28:25.907Z,20.15
2023-10-01T18:30:56.488Z,20.13
2023-10-01T18:33:29.605Z,20.14
2023-10-01T18:35:59.543Z,20.08
2023-10-01T18:38:29.450Z,20.08
2023-10-01T18:40:57.796Z,19.98
2023-10-01T18:43:28.051Z,19.93
2023-10-01T18:45:59.971Z,19.90
2023-10-01T18:48:31.732Z,19.87
2023-10-01T18:50:59.949Z,19.82
2023-10-01T18:53:28.701Z,19.81
2023-10-01T18:55:57.010Z,19.76
2023-10-01T18:58:25.343Z,19.71
2023-10-01T19:00:56.190Z,19.71
2023-10-01T19:03:25.962Z,19.66
2023-10-01T19:06:00.555Z,19.63
2023-10-01T19:08:30.216Z,19.61
2023-10-01T19:11:00.985Z,19.62
2023-10-01T19:13:31.374Z,19.61
2023-10-01T19:16:01.564Z,19.62
2023-10-01T19:18:31.070Z,19.56
2023-10-01T19:21:01.017Z,19.54
2023-10-01T19:23:40.551Z,19.53
2023-10-01T19:26:08.478Z,19.52
2023-10-01T19:28:37.082Z,19.53
2023-10-01T19:31:13.516Z,19.55
2023-10-01T19:33:44.863Z,19.54
2023-10-01T19:36:13.159Z,19.50
2023-10-01T19:38:47.928Z,19.43
2023-10-01T19:41:19.169Z,19.40
2023-10-01T19:43:48.166Z,19.37
2023-10-01T19:46:17.574Z,19.37
2023-10-01T19:48:50.879Z,19.37
2023-10-01T19:51:24.000Z,19.37
2023-10-01T19:54:01.958Z,19.32
2023-10-01T19:56:30.418Z,19.30
2023-10-01T19:59:08.767Z,19.30
2023-10-01T20:01:41.755Z,19.30
2023-10-01T20:04:11.988Z,19.28
2023-10-01T20:06:45.790Z,19.25
2023-10-01T20:09:25.719Z,19.22
2023-10-01T20:11:58.810Z,19.18
2023-10-01T20:14:28.881Z,19.10
2023-10-01T20:17:01.738Z,19.07
2023-10-01T20:19:31.453Z,19.04
2023-10-01T20:22:01.985Z,19.06
2023-10-01T20:24:29.934Z,19.05
2023-10-01T20:26:58.017Z,19.04
2023-10-01T20:29:27.515Z,19.05
2023-10-01T20:32:01.250Z,18.92
2023-10-01T20:34:30.747Z,18.84
2023-10-01T20:37:02.250Z,18.83
2023-10-01T20:39:40.094Z,18.84
2023-10-01T20:42:09.363Z,18.84
2023-10-01T20:44:37.385Z,18.84
2023-10-01T20:47:17.535Z,18.87
2023-10-01T20:49:49.911Z,18.84
2023-10-01T20:52:19.517Z,18.83
2023-10-01T20:54:48.008Z,18.81
2023-10-01T20:57:19.740Z,18.82
2023-10-01T20:59:47.846Z,18.84
2023-10-01T21:02:18.441Z,18.87
2023-10-01T21:04:52.225Z,18.87
2023-10-01T21:07:30.553Z,18.85
2023-10-01T21:09:59.230Z,18.77
2023-10-01T21:12:32.667Z,18.71
2023-10-01T21:15:01.416Z,18.71
2023-10-01T21:17:32.199Z,18.70
2023-10-01T21:20:12.416Z,18.55
2023-10-01T21:22:42.150Z,18.47
2023-10-01T21:25:23.045Z,18.51
2023-10-01T21:27:52.334Z,18.49
2023-10-01T21:30:20.485Z,18.47
2023-10-01T21:32:49.928Z,18.48
2023-10-01T21:35:21.859Z,18.46
2023-10-01T21:37:50.822Z,18.45
2023-10-01T21:40:21.624Z,18.43
2023-10-01T21:42:51.904Z,18.45
2023-10-01T21:45:41.149Z,18.41
2023-10-01T21:48:14.210Z,18.38
2023-10-01T21:50:45.104Z,18.37
2023-10-01T21:53:35.516Z,18.36
2023-10-01T21:56:06.589Z,18.38
2023-10-01T21:58:38.446Z,18.37
2023-10-01T22:01:24.972Z,18.37
2023-10-01T22:03:54.234Z,18.36
2023-10-01T22:06:30.747Z,18.35
2023-10-01T22:08:59.321Z,18.36
2023-10-01T22:11:29.023Z,18.36
2023-10-01T22:14:03.918Z,18.33
2023-10-01T22:16:37.769Z,18.28
2023-10-01T22:19:10.069Z,18.26
2023-10-01T22:21:39.471Z,18.25
2023-10-01T22:24:20.972Z,18.26
2023-10-01T22:26:51.340Z,18.23
2023-10-01T22:29:22.054Z,18.17
2023-10-01T22:31:52.614Z,18.08
2023-10-01T22:34:26.073Z,18.02
2023-10-01T22:37:03.637Z,18.02
2023-10-01T22:39:38.579Z,18.05
2023-10-01T22:42:23.049Z,18.05
2023-10-01T22:44:54.975Z,18.05
2023-10-01T22:47:23.794Z,18.06
2023-10-01T22:49:56.858Z,18.04
2023-10-01T22:52:31.251Z,18.03
2023-10-01T22:55:00.494Z,18.06
2023-10-01T22:57:42.114Z,18.05
2023-10-01T23:00:12.759Z,18.01
2023-10-01T23:02:48.315Z,18.00
2023-10-01T23:05:18.257Z,17.93
2023-10-01T23:07:48.633Z,17.94
2023-10-01T23:10:26.659Z,17.93
2023-10-01T23:13:08.350Z,17.92
2023-10-01T23:15:40.719Z,17.91
2023-10-01T23:18:19.325Z,17.88
2023-10-01T23:20:52.725Z,17.85
2023-10-01T23:23:29.617Z,17.86
2023-10-01T23:26:05.931Z,17.88
2023-10-01T23:28:36.507Z,17.86
2023-10-01T23:31:15.570Z,17.86
2023-10-01T23:33:46.782Z,17.87
2023-10-01T23:36:14.934Z,17.86
2023-10-01T23:38:57.058Z,17.86
2023-10-01T23:41:45.952Z,17.83
2023-10-01T23:44:14.061Z,17.83
2023-10-01T23:46:42.061Z,17.81
2023-10-01T23:49:12.932Z,17.79
2023-10-01T23:51:54.945Z,17.74
2023-10-01T23:54:28.697Z,17.75
2023-10-01T23:56:56.662Z,17.73
2023-10-01T23:59:33.994Z,17.67
